Time;durP1;ratioP1;P1;durP2;ratioP2;P2;SDS_P1;SDS_P2;PMS_P1;PMS_P2;Temp;Humidity;BMP_temperature;BMP_pressure;BME280_temperature;BME280_humidity;BME280_pressure;Samples;Min_cycle;Max_cycle;Signal;HPM_P1;HPM_P2
2022/06/02 00:03:34;;;;;;;13.70;4.15;;;;;;;17.84;94.17;100188.44;1748769;80;21756;-77
2022/06/02 00:06:59;;;;;;;14.35;3.58;;;;;;;17.84;93.29;100187.06;1749980;82;21158;-77
2022/06/02 00:10:13;;;;;;;8.38;3.55;;;;;;;17.83;92.05;100200.59;1750096;82;21172;-77
2022/06/02 00:13:53;;;;;;;10.85;3.10;;;;;;;17.84;91.11;100209.19;1748862;80;21207;-77
2022/06/02 00:17:06;;;;;;;12.18;3.08;;;;;;;17.85;90.49;100210.03;1741204;81;21180;-77
2022/06/02 00:20:28;;;;;;;8.03;3.20;;;;;;;17.86;90.01;100210.34;1742371;82;21164;-77
2022/06/02 00:24:14;;;;;;;12.70;3.05;;;;;;;17.84;89.73;100208.35;1741017;81;21192;-77
2022/06/02 00:27:33;;;;;;;10.63;3.67;;;;;;;17.84;89.55;100207.81;1742022;81;21200;-77
2022/06/02 00:30:55;;;;;;;13.10;3.98;;;;;;;17.81;89.55;100212.41;1743875;82;21176;-77
2022/06/02 00:34:28;;;;;;;7.03;3.37;;;;;;;17.78;89.88;100212.84;1742852;81;21223;-77
2022/06/02 00:37:47;;;;;;;10.15;3.33;;;;;;;17.74;90.23;100208.86;1744577;81;21259;-77
2022/06/02 00:40:52;;;;;;;11.15;3.22;;;;;;;17.70;90.39;100212.27;1757858;80;21215;-76
2022/06/02 00:44:18;;;;;;;9.08;2.90;;;;;;;17.65;90.26;100206.57;1781817;80;21236;-78
2022/06/02 00:48:01;;;;;;;7.70;2.65;;;;;;;17.62;89.82;100200.94;1782796;80;21674;-77
2022/06/02 00:51:12;;;;;;;5.85;2.50;;;;;;;17.61;89.38;100191.80;1783244;80;21741;-77
2022/06/02 00:58:46;;;;;;;7.30;2.10;;;;;;;17.58;88.98;100187.25;1783273;80;21224;-77
2022/06/02 01:01:51;;;;;;;8.23;2.60;;;;;;;17.57;89.00;100184.17;1783439;80;21157;-83
2022/06/02 01:05:00;;;;;;;10.25;2.72;;;;;;;17.55;89.20;100180.27;1783687;80;21169;-83
2022/06/02 01:08:34;;;;;;;6.78;2.50;;;;;;;17.53;89.28;100195.38;1783572;80;21755;-82
2022/06/02 01:11:56;;;;;;;8.63;2.72;;;;;;;17.49;89.47;100190.81;1783487;80;21691;-82
2022/06/02 01:15:19;;;;;;;10.40;2.90;;;;;;;17.47;89.79;100191.59;1782345;80;21149;-83
2022/06/02 01:18:34;;;;;;;6.03;2.42;;;;;;;17.45;89.93;100190.95;1783370;80;21161;-83
2022/06/02 01:22:09;;;;;;;12.00;2.52;;;;;;;17.43;89.84;100190.88;1783348;80;21527;-83
2022/06/02 01:25:48;;;;;;;7.87;2.77;;;;;;;17.39;89.73;100187.70;1783436;80;21758;-83
2022/06/02 01:29:17;;;;;;;8.88;2.72;;;;;;;17.36;89.91;100190.41;1783144;80;21173;-82
2022/06/02 01:32:25;;;;;;;8.90;3.17;;;;;;;17.33;90.40;100190.00;1784066;80;21172;-82
2022/06/02 01:36:02;;;;;;;8.20;2.67;;;;;;;17.29;90.88;100188.20;1783456;80;21161;-83
2022/06/02 01:39:21;;;;;;;9.95;2.85;;;;;;;17.28;91.49;100192.59;1782051;80;21212;-83
2022/06/02 01:42:58;;;;;;;7.15;2.33;;;;;;;17.25;92.14;100194.41;1782902;80;21184;-83
2022/06/02 01:46:29;;;;;;;10.63;3.17;;;;;;;17.23;92.81;100182.20;1783636;80;21157;-83
2022/06/02 01:50:05;;;;;;;8.28;2.95;;;;;;;17.22;93.38;100178.25;1781990;80;21244;-83
2022/06/02 01:53:35;;;;;;;6.97;2.47;;;;;;;17.20;93.72;100188.70;1782391;80;21204;-83
2022/06/02 01:57:12;;;;;;;8.95;3.27;;;;;;;17.19;93.97;100188.39;1783513;80;21169;-83
2022/06/02 02:00:26;;;;;;;11.15;3.30;;;;;;;17.16;94.03;100193.81;1783503;80;21700;-83
2022/06/02 02:03:47;;;;;;;21.07;4.20;;;;;;;17.11;93.93;100194.48;1782961;80;21169;-83
2022/06/02 02:07:20;;;;;;;10.50;3.10;;;;;;;17.09;94.04;100196.63;1768217;80;21164;-83
2022/06/02 02:10:36;;;;;;;12.20;2.70;;;;;;;17.13;93.72;100200.34;1783241;80;21168;-83
2022/06/02 02:14:35;;;;;;;7.55;2.62;;;;;;;17.23;93.21;100202.92;1779565;80;21209;-83
2022/06/02 02:18:07;;;;;;;14.18;2.85;;;;;;;17.36;92.58;100208.38;1752257;80;21197;-83
2022/06/02 02:21:59;;;;;;;8.90;2.37;;;;;;;17.60;91.50;100201.72;1729275;81;21703;-83
2022/06/02 02:25:24;;;;;;;8.88;2.35;;;;;;;17.88;90.18;100201.30;1751134;82;21183;-83
2022/06/02 02:29:12;;;;;;;4.92;2.15;;;;;;;18.24;88.31;100191.34;1751443;80;21217;-83
2022/06/02 02:32:44;;;;;;;5.97;2.22;;;;;;;18.58;86.33;100203.22;1750849;80;21210;-83
2022/06/02 02:36:19;;;;;;;11.28;2.30;;;;;;;18.95;84.15;100208.72;1752283;82;21167;-83
2022/06/02 02:39:32;;;;;;;8.90;2.35;;;;;;;19.23;82.22;100210.89;1752318;82;21143;-83
2022/06/02 02:42:51;;;;;;;8.05;2.47;;;;;;;19.48;80.66;100209.37;1749353;80;21226;-83
2022/06/02 02:46:23;;;;;;;5.45;2.05;;;;;;;19.66;79.11;100218.16;1737849;82;21171;-83
2022/06/02 02:49:46;;;;;;;7.35;2.17;;;;;;;19.78;78.14;100213.48;1738361;82;21321;-83
2022/06/02 02:53:06;;;;;;;9.70;2.05;;;;;;;20.00;76.98;100208.21;1732909;81;21230;-83
2022/06/02 02:56:30;;;;;;;10.25;2.12;;;;;;;20.25;75.73;100206.57;1739460;82;21167;-83
2022/06/02 02:59:58;;;;;;;8.88;2.10;;;;;;;20.53;74.25;100204.46;1752340;81;21763;-83
2022/06/02 03:03:20;;;;;;;7.58;1.85;;;;;;;20.87;72.98;100206.00;1768446;81;21547;-83
2022/06/02 03:06:32;;;;;;;7.58;2.50;;;;;;;21.31;71.29;100213.28;1768083;81;21177;-83
2022/06/02 03:10:01;;;;;;;7.60;2.00;;;;;;;21.69;69.51;100210.67;1768060;81;21154;-83
2022/06/02 03:13:49;;;;;;;5.20;1.95;;;;;;;22.05;68.21;100214.03;1699540;84;21207;-83
2022/06/02 03:17:06;;;;;;;9.33;2.25;;;;;;;22.42;66.49;100207.38;1739200;82;21174;-83
2022/06/02 03:20:36;;;;;;;7.03;1.80;;;;;;;22.66;64.95;100202.97;1739265;82;21181;-83
2022/06/02 03:24:08;;;;;;;6.05;1.70;;;;;;;22.87;64.23;100206.87;1739273;82;21201;-83
2022/06/02 03:27:47;;;;;;;6.10;2.25;;;;;;;23.17;63.20;100214.23;1672819;85;21192;-83
2022/06/02 03:31:20;;;;;;;9.53;2.00;;;;;;;23.41;62.24;100216.71;1739234;82;21527;-83
2022/06/02 03:35:04;;;;;;;13.20;2.00;;;;;;;23.59;61.47;100217.73;1738508;82;21173;-83
2022/06/02 03:38:29;;;;;;;7.30;2.10;;;;;;;23.73;61.21;100218.73;1728168;82;21248;-83
2022/06/02 03:41:42;;;;;;;9.10;2.37;;;;;;;23.87;60.61;100225.00;1739526;82;21164;-83
2022/06/02 03:45:13;;;;;;;9.68;2.17;;;;;;;23.85;59.58;100227.77;1737375;81;21256;-83
2022/06/02 03:48:32;;;;;;;13.40;2.20;;;;;;;23.73;59.99;100230.75;1736392;82;21484;-83
2022/06/02 03:51:49;;;;;;;6.75;2.27;;;;;;;23.64;60.79;100235.12;1736352;82;21174;-83
2022/06/02 03:55:32;;;;;;;8.60;2.37;;;;;;;23.54;61.02;100221.88;1737535;82;22150;-83
2022/06/02 03:59:01;;;;;;;7.97;2.67;;;;;;;23.51;61.38;100218.77;1736982;81;21750;-83
2022/06/02 04:02:18;;;;;;;13.83;2.60;;;;;;;23.53;61.90;100224.39;1728560;83;21172;-83
2022/06/02 04:05:48;;;;;;;9.95;2.02;;;;;;;23.42;62.23;100232.34;1727898;83;21243;-83
2022/06/02 04:09:12;;;;;;;7.55;2.58;;;;;;;23.27;63.43;100225.21;1728970;83;21220;-83
2022/06/02 04:16:24;;;;;;;10.45;2.70;;;;;;;23.24;64.73;100224.33;1727543;81;21192;-77
2022/06/02 04:23:30;;;;;;;;;;;;;;;23.39;65.67;100228.70;1730414;83;21805;-77
2022/06/02 04:26:51;;;;;;;11.63;3.67;;;;;;;23.43;65.57;100234.02;1726942;83;20182;-77
2022/06/02 04:30:44;;;;;;;10.25;3.08;;;;;;;23.44;65.19;100231.55;1753726;81;21196;-77
2022/06/02 04:34:10;;;;;;;8.40;2.58;;;;;;;23.50;65.65;100231.88;1768254;80;21527;-77
2022/06/02 04:37:41;;;;;;;9.45;2.55;;;;;;;23.75;65.05;100234.66;1769603;81;21826;-77
2022/06/02 04:41:11;;;;;;;14.53;3.67;;;;;;;23.92;64.76;100229.23;1769572;81;21224;-77
2022/06/02 04:44:48;;;;;;;19.87;3.90;;;;;;;23.90;64.82;100226.41;1761740;81;21199;-77
2022/06/02 04:48:14;;;;;;;9.00;2.47;;;;;;;23.91;65.23;100228.95;1722385;80;21196;-78
2022/06/02 04:51:41;;;;;;;7.08;2.47;;;;;;;24.06;65.82;100231.03;1746798;82;21796;-77
2022/06/02 04:54:52;;;;;;;13.48;2.83;;;;;;;24.15;64.75;100229.98;1746903;82;21804;-77
2022/06/02 04:58:22;;;;;;;;;;;;;;;24.21;65.33;100244.27;1749424;80;21207;-77
2022/06/02 05:01:52;;;;;;;15.95;3.77;;;;;;;24.34;64.62;100241.02;1745541;82;20604;-77
2022/06/02 05:05:17;;;;;;;19.12;3.40;;;;;;;24.44;64.79;100243.06;1729141;82;21891;-77
2022/06/02 05:08:33;;;;;;;10.35;3.17;;;;;;;24.64;63.10;100236.75;1730350;81;21224;-77
2022/06/02 05:12:08;;;;;;;8.53;2.62;;;;;;;24.76;62.52;100241.58;1745802;82;21245;-77
2022/06/02 05:15:23;;;;;;;11.50;3.35;;;;;;;24.87;63.05;100234.91;1738739;81;21247;-77
2022/06/02 05:19:16;;;;;;;18.10;3.25;;;;;;;25.05;61.33;100239.75;1730102;80;21186;-77
2022/06/02 05:22:48;;;;;;;13.45;3.22;;;;;;;25.10;61.51;100235.60;1746703;80;21209;-77
2022/06/02 05:26:21;;;;;;;11.35;3.08;;;;;;;25.18;60.63;100234.52;1746842;82;21226;-77
2022/06/02 05:29:53;;;;;;;8.03;2.47;;;;;;;25.24;60.76;100236.20;1758462;81;21212;-77
2022/06/02 05:33:45;;;;;;;12.85;3.15;;;;;;;25.33;59.71;100239.31;1774472;81;21431;-77
2022/06/02 05:37:15;;;;;;;7.42;2.70;;;;;;;25.41;59.34;100238.79;1773841;81;21192;-77
2022/06/02 05:40:29;;;;;;;11.08;3.27;;;;;;;25.54;60.11;100237.39;1775034;81;21128;-77
2022/06/02 05:43:58;;;;;;;12.93;3.15;;;;;;;25.65;59.41;100240.51;1769241;81;21207;-77
2022/06/02 05:47:27;;;;;;;15.13;4.28;;;;;;;25.74;58.35;100242.20;1767300;80;21177;-77
2022/06/02 05:50:44;;;;;;;12.60;2.67;;;;;;;25.85;59.33;100241.68;1769388;81;21162;-77
2022/06/02 05:54:10;;;;;;;16.97;2.72;;;;;;;26.02;58.17;100244.19;1769552;81;21816;-77
2022/06/02 05:57:26;;;;;;;18.15;3.25;;;;;;;26.12;57.76;100246.45;1749793;81;21178;-77
2022/06/02 06:01:00;;;;;;;18.40;2.95;;;;;;;26.22;58.69;100242.23;1754311;81;21789;-77
2022/06/02 06:04:46;;;;;;;7.80;3.08;;;;;;;26.40;58.13;100246.98;1737685;82;21193;-77
2022/06/02 06:08:30;;;;;;;15.43;3.83;;;;;;;26.59;57.51;100249.50;1743940;81;21742;-77
2022/06/02 06:12:04;;;;;;;18.62;3.58;;;;;;;26.80;56.68;100246.63;1769344;81;21778;-77
2022/06/02 06:15:54;;;;;;;10.98;3.35;;;;;;;27.02;55.43;100249.92;1762321;81;21224;-77
2022/06/02 06:19:34;;;;;;;20.23;3.45;;;;;;;27.06;54.29;100246.83;1756281;81;21169;-78
2022/06/02 06:23:06;;;;;;;8.18;2.50;;;;;;;27.27;53.92;100243.38;1759616;81;21182;-77
2022/06/02 06:26:37;;;;;;;10.63;3.12;;;;;;;27.65;53.22;100235.28;1762696;79;21701;-77
2022/06/02 06:29:53;;;;;;;12.63;2.72;;;;;;;27.65;53.22;100235.28;1771335;79;21626;-77
2022/06/02 06:33:43;;;;;;;12.23;2.62;;;;;;;27.94;52.52;100236.78;1755384;81;21201;-78
2022/06/02 06:37:24;;;;;;;8.73;2.65;;;;;;;28.18;51.39;100236.31;1757916;81;21169;-78
2022/06/02 06:41:26;;;;;;;11.25;2.75;;;;;;;28.48;49.72;100238.00;1758003;81;21767;-77
2022/06/02 06:44:48;;;;;;;13.03;2.72;;;;;;;28.63;47.36;100244.03;1761089;79;21165;-78
2022/06/02 06:48:11;;;;;;;12.90;3.00;;;;;;;28.65;46.81;100245.13;1735617;81;21314;-77
2022/06/02 06:51:31;;;;;;;15.45;3.00;;;;;;;28.63;47.35;100244.03;1735984;80;21806;-82
2022/06/02 06:54:44;;;;;;;;;;;;;;;28.60;47.32;100243.78;1740939;80;21167;-83
2022/06/02 06:58:01;;;;;;;11.68;3.12;;;;;;;28.63;46.84;100247.41;1704161;80;20223;-83
2022/06/02 07:01:29;;;;;;;15.75;2.90;;;;;;;28.62;47.56;100247.98;1737280;80;21536;-83
2022/06/02 07:05:06;;;;;;;16.40;3.27;;;;;;;28.67;47.07;100254.97;1725422;80;21167;-83
2022/06/02 07:08:41;;;;;;;8.85;3.05;;;;;;;28.78;47.04;100249.48;1736616;80;21189;-78
2022/06/02 07:15:47;;;;;;;16.55;5.30;;;;;;;29.36;47.64;100249.06;1727105;80;21151;-78
2022/06/02 07:19:07;;;;;;;21.93;6.28;;;;;;;29.61;46.08;100248.75;1746818;80;21164;-83
2022/06/02 07:22:21;;;;;;;17.73;5.83;;;;;;;29.75;45.22;100247.41;1744437;80;21183;-83
2022/06/02 07:25:53;;;;;;;26.10;7.78;;;;;;;29.83;45.54;100250.09;1734889;80;21155;-83
2022/06/02 07:29:29;;;;;;;30.17;9.50;;;;;;;29.95;44.81;100256.12;1733880;81;22277;-83
2022/06/02 07:33:06;;;;;;;38.83;12.82;;;;;;;30.10;44.65;100255.02;1735246;80;21144;-83
2022/06/02 07:36:30;;;;;;;35.45;12.18;;;;;;;30.23;44.65;100251.45;1750626;80;21546;-83
2022/06/02 07:39:41;;;;;;;38.20;13.83;;;;;;;30.33;44.15;100254.66;1739182;80;21843;-83
2022/06/02 07:42:53;;;;;;;37.60;11.25;;;;;;;30.33;43.27;100247.61;1722554;80;21175;-83
2022/06/02 07:46:37;;;;;;;45.58;15.50;;;;;;;30.27;44.19;100246.28;1739576;80;21460;-83
2022/06/02 07:50:17;;;;;;;27.95;10.15;;;;;;;30.20;42.61;100247.24;1773820;79;21548;-82
2022/06/02 07:53:40;;;;;;;29.45;10.23;;;;;;;30.00;44.33;100239.95;1771326;79;21144;-82
2022/06/02 07:57:14;;;;;;;28.38;11.38;;;;;;;29.84;44.44;100245.58;1765847;79;21157;-82
2022/06/02 08:00:34;;;;;;;28.87;10.65;;;;;;;29.74;44.04;100240.95;1773204;79;21798;-82
2022/06/02 08:03:56;;;;;;;25.40;9.68;;;;;;;29.79;44.32;100240.86;1761852;80;21188;-83
2022/06/02 08:07:16;;;;;;;30.23;10.65;;;;;;;29.86;44.34;100243.86;1772174;79;21282;-83
2022/06/02 08:10:41;;;;;;;22.48;10.15;;;;;;;29.88;44.27;100244.37;1774070;79;21812;-83
2022/06/02 08:14:18;;;;;;;33.33;9.70;;;;;;;29.87;43.54;100238.48;1773649;79;21161;-83
2022/06/02 08:17:37;;;;;;;24.37;7.55;;;;;;;29.86;43.31;100248.09;1773648;80;21212;-83
2022/06/02 08:21:17;;;;;;;18.00;6.15;;;;;;;29.84;42.34;100245.58;1778473;79;21185;-83
2022/06/02 08:24:46;;;;;;;20.10;5.62;;;;;;;29.87;42.83;100244.11;1774978;79;21706;-78
2022/06/02 08:28:22;;;;;;;18.17;4.25;;;;;;;30.00;41.96;100248.41;1773821;80;21797;-78
2022/06/02 08:31:52;;;;;;;14.55;5.10;;;;;;;30.09;42.34;100247.14;1773652;80;21149;-77
2022/06/02 08:35:08;;;;;;;;;;;;;;;30.17;42.76;100247.05;1777971;79;21686;-78
2022/06/02 08:38:28;;;;;;;18.77;3.40;;;;;;;30.25;41.34;100247.73;1782765;79;20611;-78
2022/06/02 08:42:19;;;;;;;10.68;3.00;;;;;;;30.21;41.90;100253.17;1784115;79;21129;-78
2022/06/02 08:45:50;;;;;;;16.37;2.90;;;;;;;30.14;40.24;100253.30;1791962;79;21157;-78
2022/06/02 08:49:23;;;;;;;15.38;3.27;;;;;;;30.01;40.80;100253.47;1766742;79;21182;-78
2022/06/02 08:53:03;;;;;;;19.00;3.62;;;;;;;29.95;39.10;100259.77;1724526;82;21638;-78
2022/06/02 08:56:31;;;;;;;12.75;3.00;;;;;;;29.89;41.13;100258.77;1713285;82;21153;-78
2022/06/02 09:00:20;;;;;;;14.00;3.22;;;;;;;29.93;42.20;100257.01;1741023;79;21217;-77
2022/06/02 09:03:44;;;;;;;;;;;;;;;29.88;42.87;100258.47;1757349;79;21186;-78
2022/06/02 09:07:19;;;;;;;15.58;2.58;;;;;;;29.88;43.52;100253.70;1756710;81;20201;-78
2022/06/02 09:10:58;;;;;;;14.90;2.77;;;;;;;29.90;44.00;100251.39;1761939;81;21525;-77
2022/06/02 09:14:48;;;;;;;9.50;2.45;;;;;;;29.81;44.46;100251.82;1764660;79;21161;-76
2022/06/02 09:18:27;;;;;;;12.80;2.45;;;;;;;29.81;43.82;100251.82;1760621;81;21173;-76
2022/06/02 09:22:03;;;;;;;13.32;2.60;;;;;;;29.83;44.84;100250.09;1699331;82;21169;-77
2022/06/02 09:25:36;;;;;;;10.20;2.55;;;;;;;29.91;45.24;100252.23;1759330;79;21687;-77
2022/06/02 09:29:11;;;;;;;14.33;2.33;;;;;;;29.95;44.32;100253.30;1759053;79;22087;-77
2022/06/02 09:32:29;;;;;;;9.50;2.42;;;;;;;30.01;45.35;100253.47;1748672;81;21214;-78
2022/06/02 09:35:46;;;;;;;6.53;2.00;;;;;;;30.04;44.24;100253.70;1759526;81;21198;-78
2022/06/02 09:39:22;;;;;;;10.10;2.50;;;;;;;30.01;43.97;100254.30;1755034;81;21169;-79
2022/06/02 09:42:56;;;;;;;7.35;2.30;;;;;;;30.04;44.20;100258.50;1755361;81;21157;-78
2022/06/02 09:46:44;;;;;;;8.78;2.10;;;;;;;30.09;42.14;100257.01;1759270;81;21134;-76
2022/06/02 09:50:10;;;;;;;9.90;2.02;;;;;;;30.12;41.46;100252.17;1763632;80;21420;-76
2022/06/02 09:53:43;;;;;;;10.95;2.30;;;;;;;30.16;43.00;100256.09;1730710;82;21399;-76
2022/06/02 10:00:58;;;;;;;14.43;3.60;;;;;;;30.19;42.94;100245.58;1709327;83;21182;-77
2022/06/02 10:04:35;;;;;;;8.70;2.42;;;;;;;30.33;43.68;100241.96;1718759;82;21603;-77
2022/06/02 10:08:02;;;;;;;12.13;3.17;;;;;;;30.41;42.73;100242.67;1738176;82;21236;-83
2022/06/02 10:11:29;;;;;;;10.93;2.02;;;;;;;30.51;42.32;100239.08;1726632;82;21801;-83
2022/06/02 10:15:01;;;;;;;13.08;2.30;;;;;;;30.49;41.54;100243.38;1725744;83;21493;-78
2022/06/02 10:18:17;;;;;;;9.38;2.08;;;;;;;30.42;41.96;100242.34;1709522;83;21190;-77
2022/06/02 10:21:50;;;;;;;12.53;2.20;;;;;;;30.46;42.39;100232.70;1704171;83;21137;-77
2022/06/02 10:25:40;;;;;;;12.15;2.37;;;;;;;30.47;40.24;100240.84;1708968;83;21152;-77
2022/06/02 10:29:28;;;;;;;12.93;2.22;;;;;;;30.47;40.59;100231.54;1712717;82;21160;-83
2022/06/02 10:32:52;;;;;;;12.23;2.58;;;;;;;30.49;40.71;100227.85;1732364;82;21176;-84
2022/06/02 10:36:20;;;;;;;9.50;2.20;;;;;;;30.53;41.45;100226.89;1701431;83;21779;-83
2022/06/02 10:40:14;;;;;;;9.13;2.02;;;;;;;30.63;41.41;100229.25;1712879;83;21600;-83
2022/06/02 10:43:40;;;;;;;13.50;2.62;;;;;;;30.63;41.41;100229.25;1705684;82;21212;-83
2022/06/02 10:47:10;;;;;;;6.05;2.15;;;;;;;30.68;41.54;100227.19;1734817;82;21148;-83
2022/06/02 10:50:34;;;;;;;7.30;1.82;;;;;;;30.69;41.01;100230.27;1714666;83;21167;-83
2022/06/02 10:54:11;;;;;;;17.30;2.40;;;;;;;30.67;40.29;100223.25;1705745;83;21142;-83
2022/06/02 10:57:47;;;;;;;19.50;2.67;;;;;;;30.68;40.55;100226.36;1755925;81;21238;-83
2022/06/02 11:01:31;;;;;;;16.57;2.42;;;;;;;30.75;40.30;100226.22;1755187;81;21150;-83
2022/06/02 11:04:51;;;;;;;7.60;1.85;;;;;;;30.79;41.45;100221.62;1768693;81;21126;-83
2022/06/02 11:08:41;;;;;;;12.60;2.62;;;;;;;30.93;40.48;100219.38;1739495;82;21181;-83
2022/06/02 11:12:23;;;;;;;16.00;2.85;;;;;;;30.97;39.57;100217.60;1753545;81;21108;-83
2022/06/02 11:16:15;;;;;;;10.00;2.10;;;;;;;31.02;40.44;100216.08;1753780;81;21165;-83
2022/06/02 11:20:01;;;;;;;7.78;2.22;;;;;;;31.05;39.84;100199.34;1754185;81;21201;-83
2022/06/02 11:23:48;;;;;;;10.35;2.80;;;;;;;31.12;39.50;100196.08;1757215;81;21188;-84
2022/06/02 11:27:21;;;;;;;5.83;2.30;;;;;;;31.13;38.98;100203.40;1766676;81;21497;-85
2022/06/02 11:30:35;;;;;;;13.98;2.70;;;;;;;31.10;37.74;100202.64;1762708;81;21543;-83
2022/06/02 11:34:25;;;;;;;14.15;2.65;;;;;;;31.03;38.09;100196.56;1769190;81;21678;-83
2022/06/02 11:38:10;;;;;;;15.60;2.53;;;;;;;31.06;37.70;100198.77;1766078;81;21754;-77
2022/06/02 11:41:45;;;;;;;7.00;2.47;;;;;;;31.09;38.42;100197.28;1754052;81;21488;-78
2022/06/02 11:45:07;;;;;;;13.35;3.70;;;;;;;31.17;38.24;100188.91;1766930;81;21178;-78
2022/06/02 11:48:24;;;;;;;19.37;3.55;;;;;;;31.26;38.29;100186.17;1767007;81;22225;-77
2022/06/02 11:51:54;;;;;;;14.85;3.17;;;;;;;31.36;38.54;100186.55;1775675;80;21205;-78
2022/06/02 11:55:41;;;;;;;22.93;3.77;;;;;;;31.44;38.43;100181.55;1780091;80;21238;-77
2022/06/02 11:58:57;;;;;;;18.23;3.15;;;;;;;31.45;37.27;100182.64;1779649;80;21205;-77
2022/06/02 12:02:24;;;;;;;14.25;2.58;;;;;;;31.52;36.75;100173.16;1780113;80;21193;-78
2022/06/02 12:06:21;;;;;;;15.18;3.72;;;;;;;31.59;36.44;100175.53;1752056;80;21225;-78
2022/06/02 12:10:07;;;;;;;18.25;3.75;;;;;;;31.60;37.09;100171.54;1739151;80;21196;-78
2022/06/02 12:13:39;;;;;;;9.03;3.50;;;;;;;31.55;37.25;100160.36;1764483;81;21546;-78
2022/06/02 12:17:22;;;;;;;14.93;3.67;;;;;;;31.56;37.18;100166.27;1776849;80;21188;-78
2022/06/02 12:20:45;;;;;;;35.13;4.00;;;;;;;31.43;37.03;100162.91;1755004;80;21176;-78
2022/06/02 12:24:46;;;;;;;10.78;2.90;;;;;;;31.27;37.17;100156.79;1753003;82;21196;-77
2022/06/02 12:28:38;;;;;;;18.60;2.95;;;;;;;31.13;36.27;100148.31;1777845;80;21189;-78
2022/06/02 12:32:20;;;;;;;15.25;3.30;;;;;;;30.98;36.59;100135.96;1752114;82;21208;-77
2022/06/02 12:35:51;;;;;;;9.00;3.50;;;;;;;31.01;36.75;100124.87;1709837;81;21719;-78
2022/06/02 12:39:31;;;;;;;17.75;4.00;;;;;;;31.08;35.94;100121.60;1782120;80;21173;-78
2022/06/02 12:42:47;;;;;;;18.82;4.28;;;;;;;31.13;36.45;100121.48;1773508;80;21749;-77
2022/06/02 12:45:59;;;;;;;11.28;3.65;;;;;;;31.24;37.52;100121.52;1778188;80;21188;-77
2022/06/02 12:49:10;;;;;;;17.77;3.77;;;;;;;31.38;36.59;100133.36;1762627;80;21220;-78
2022/06/02 12:52:28;;;;;;;10.78;3.50;;;;;;;31.44;35.82;100128.70;1776001;80;21762;-78
2022/06/02 12:55:57;;;;;;;9.33;2.60;;;;;;;31.43;35.31;100139.75;1736212;82;21801;-77
2022/06/02 12:59:51;;;;;;;5.50;2.08;;;;;;;31.37;36.31;100126.05;1728333;82;21244;-77
2022/06/02 13:03:35;;;;;;;13.18;2.77;;;;;;;31.39;33.81;100115.27;1709984;82;21477;-78
2022/06/02 13:07:12;;;;;;;15.95;2.35;;;;;;;31.52;34.38;100118.59;1719734;83;21146;-78
2022/06/02 13:10:27;;;;;;;6.70;1.55;;;;;;;31.63;32.86;100115.78;1723937;82;21298;-78
2022/06/02 13:14:10;;;;;;;11.63;3.05;;;;;;;31.69;29.17;100110.25;1724911;83;21205;-84
2022/06/02 13:17:41;;;;;;;15.80;2.67;;;;;;;31.66;30.14;100103.81;1718758;83;21195;-77
2022/06/02 13:21:18;;;;;;;11.65;1.98;;;;;;;31.66;30.15;100085.44;1717048;82;21247;-77
2022/06/02 13:24:59;;;;;;;12.13;2.25;;;;;;;31.62;30.49;100077.37;1698320;83;21699;-78
2022/06/02 13:28:31;;;;;;;8.00;2.00;;;;;;;31.57;31.97;100071.83;1728621;83;21199;-77
2022/06/02 13:32:06;;;;;;;10.78;3.08;;;;;;;31.55;32.55;100065.67;1709070;83;21199;-77
2022/06/02 13:35:39;;;;;;;8.85;1.95;;;;;;;31.49;31.18;100062.73;1715354;82;21161;-77
2022/06/02 13:39:23;;;;;;;9.45;1.80;;;;;;;31.45;32.01;100061.70;1723775;82;21192;-77
2022/06/02 13:42:56;;;;;;;11.20;2.50;;;;;;;31.40;31.90;100054.77;1745325;82;21793;-77
2022/06/02 13:46:39;;;;;;;9.63;2.35;;;;;;;31.36;32.30;100059.39;1746133;82;21181;-77
2022/06/02 13:50:27;;;;;;;18.98;2.40;;;;;;;31.33;32.00;100065.09;1716810;83;21192;-77
2022/06/02 13:57:30;;;;;;;10.47;2.10;;;;;;;31.30;32.71;100086.36;1716212;83;21747;-77
2022/06/02 14:00:44;;;;;;;12.53;2.30;;;;;;;31.25;33.77;100109.06;1714805;83;21138;-77
2022/06/02 14:04:23;;;;;;;8.30;1.95;;;;;;;31.22;35.04;100120.16;1723762;82;21225;-77
2022/06/02 14:07:35;;;;;;;15.68;2.02;;;;;;;31.13;34.81;100124.89;1727823;82;21216;-77
2022/06/02 14:11:04;;;;;;;6.03;2.33;;;;;;;30.97;35.06;100128.65;1732337;82;21162;-77
2022/06/02 14:14:31;;;;;;;16.15;1.95;;;;;;;30.82;35.50;100128.42;1732468;82;21241;-77
2022/06/02 14:18:03;;;;;;;13.70;2.17;;;;;;;30.69;35.48;100125.83;1732156;82;21798;-77
2022/06/02 14:21:35;;;;;;;9.95;2.22;;;;;;;30.55;35.94;100106.08;1732248;82;21181;-77
2022/06/02 14:25:24;;;;;;;10.43;2.65;;;;;;;30.38;37.34;100091.76;1731964;82;21711;-77
2022/06/02 14:28:50;;;;;;;10.03;2.22;;;;;;;30.21;38.29;100079.70;1702669;84;21246;-77
2022/06/02 14:32:29;;;;;;;7.53;1.90;;;;;;;30.00;38.13;100074.98;1703064;84;21780;-77
2022/06/02 14:36:04;;;;;;;9.85;2.47;;;;;;;29.90;38.47;100068.72;1703173;84;21191;-78
2022/06/02 14:39:57;;;;;;;17.32;3.05;;;;;;;29.82;38.89;100062.38;1703432;84;21247;-77
2022/06/02 14:43:57;;;;;;;10.98;2.37;;;;;;;29.75;39.34;100052.36;1703072;83;21227;-77
2022/06/02 14:47:41;;;;;;;20.45;2.75;;;;;;;29.67;39.77;100058.70;1703689;83;21523;-77
2022/06/02 14:51:01;;;;;;;12.55;2.58;;;;;;;29.63;39.86;100056.81;1702986;84;21168;-77
2022/06/02 14:54:31;;;;;;;12.13;2.70;;;;;;;29.59;40.22;100057.98;1699552;83;21201;-77
2022/06/02 14:58:01;;;;;;;10.08;2.42;;;;;;;29.55;40.45;100059.78;1695951;83;21790;-77
2022/06/02 15:01:39;;;;;;;14.65;2.80;;;;;;;29.50;40.60;100069.67;1696019;84;21231;-77
2022/06/02 15:05:23;;;;;;;13.40;3.47;;;;;;;29.44;40.85;100067.52;1695754;84;21204;-77
2022/06/02 15:08:45;;;;;;;14.07;3.12;;;;;;;29.39;40.60;100072.41;1695953;83;21236;-77
2022/06/02 15:12:03;;;;;;;34.83;5.03;;;;;;;29.37;40.57;100071.89;1684752;83;21185;-77
2022/06/02 15:15:49;;;;;;;21.05;4.62;;;;;;;29.36;40.89;100068.78;1727112;83;21839;-77
2022/06/02 15:19:16;;;;;;;18.77;4.05;;;;;;;29.34;40.82;100069.11;1728730;83;21220;-77
2022/06/02 15:22:54;;;;;;;18.17;4.35;;;;;;;29.28;40.23;100071.17;1728333;83;21782;-77
2022/06/02 15:26:39;;;;;;;14.95;4.17;;;;;;;29.25;39.46;100081.63;1751460;81;21193;-77
2022/06/02 15:30:14;;;;;;;16.75;4.37;;;;;;;29.24;38.74;100072.92;1769708;81;21731;-77
2022/06/02 15:33:27;;;;;;;11.97;4.35;;;;;;;29.24;38.43;100071.52;1768782;81;21237;-77
2022/06/02 15:37:07;;;;;;;17.92;4.17;;;;;;;29.25;38.82;100078.81;1769730;81;21149;-77
2022/06/02 15:40:45;;;;;;;15.95;3.85;;;;;;;29.21;39.78;100069.88;1769694;81;21181;-77
2022/06/02 15:44:07;;;;;;;15.70;3.95;;;;;;;29.12;40.43;100065.50;1768358;81;21173;-78
2022/06/02 15:47:48;;;;;;;22.27;4.35;;;;;;;29.03;41.07;100059.75;1769933;81;21181;-77
2022/06/02 15:51:23;;;;;;;29.40;3.72;;;;;;;28.95;41.35;100054.80;1769540;81;21703;-77
2022/06/02 15:54:53;;;;;;;15.83;3.15;;;;;;;28.85;41.73;100044.24;1769472;81;21181;-78
2022/06/02 15:58:36;;;;;;;23.77;3.70;;;;;;;28.77;41.93;100047.16;1769937;81;21739;-77
2022/06/02 16:02:29;;;;;;;25.25;2.90;;;;;;;28.71;42.79;100045.00;1769869;81;21150;-78
2022/06/02 16:05:55;;;;;;;17.50;2.30;;;;;;;28.61;42.79;100041.50;1769611;81;21779;-77
2022/06/02 16:13:16;;;;;;;10.05;2.40;;;;;;;28.50;42.35;100034.58;1769453;81;21189;-84
2022/06/02 16:16:52;;;;;;;11.90;2.25;;;;;;;28.45;42.38;100034.65;1770249;81;21151;-83
2022/06/02 16:20:44;;;;;;;20.48;3.05;;;;;;;28.44;42.57;100041.99;1768199;80;21209;-83
2022/06/02 16:24:12;;;;;;;11.35;2.40;;;;;;;28.40;42.76;100053.58;1768530;81;21732;-83
2022/06/02 16:27:51;;;;;;;22.62;2.47;;;;;;;28.34;42.90;100079.53;1769679;81;21734;-83
2022/06/02 16:31:36;;;;;;;14.38;2.50;;;;;;;28.30;42.97;100099.51;1768281;80;21165;-83
2022/06/02 16:35:09;;;;;;;34.18;4.05;;;;;;;28.24;43.15;100111.39;1769837;81;21163;-83
2022/06/02 16:38:41;;;;;;;15.08;2.62;;;;;;;28.09;43.44;100119.13;1724261;82;21244;-84
2022/06/02 16:41:53;;;;;;;25.62;2.60;;;;;;;28.09;43.44;100119.13;1769587;81;21152;-83
2022/06/02 16:45:20;;;;;;;15.08;2.30;;;;;;;28.02;43.87;100123.14;1769594;81;21141;-83